sensor_id;sensor_type;location;lat;lon;timestamp;pressure;altitude;pressure_sealevel;temperature;humidity
67457;BME280;54319;52.038;4.640;2023-06-26T00:01:52;101283.00;;;23.51;56.71
67457;BME280;54319;52.038;4.640;2023-06-26T00:04:18;101273.00;;;23.45;56.53
67457;BME280;54319;52.038;4.640;2023-06-26T00:06:45;101284.44;;;23.44;57.34
67457;BME280;54319;52.038;4.640;2023-06-26T00:09:12;101280.31;;;23.36;57.86
67457;BME280;54319;52.038;4.640;2023-06-26T00:11:40;101283.13;;;23.31;58.40
67457;BME280;54319;52.038;4.640;2023-06-26T00:14:06;101286.22;;;23.19;59.60
67457;BME280;54319;52.038;4.640;2023-06-26T00:16:33;101281.53;;;23.14;60.36
67457;BME280;54319;52.038;4.640;2023-06-26T00:19:00;101275.53;;;22.91;61.25
67457;BME280;54319;52.038;4.640;2023-06-26T00:21:26;101287.75;;;22.95;61.82
67457;BME280;54319;52.038;4.640;2023-06-26T00:23:54;101295.56;;;22.88;62.21
67457;BME280;54319;52.038;4.640;2023-06-26T00:26:20;101303.97;;;22.78;63.16
67457;BME280;54319;52.038;4.640;2023-06-26T00:28:50;101306.22;;;22.65;64.29
67457;BME280;54319;52.038;4.640;2023-06-26T00:31:17;101312.91;;;22.59;64.14
67457;BME280;54319;52.038;4.640;2023-06-26T00:33:43;101315.41;;;22.45;65.36
67457;BME280;54319;52.038;4.640;2023-06-26T00:36:10;101309.59;;;22.31;65.95
67457;BME280;54319;52.038;4.640;2023-06-26T00:38:36;101309.63;;;22.16;67.04
67457;BME280;54319;52.038;4.640;2023-06-26T00:41:03;101311.88;;;21.98;68.37
67457;BME280;54319;52.038;4.640;2023-06-26T00:43:30;101311.31;;;21.96;67.97
67457;BME280;54319;52.038;4.640;2023-06-26T00:45:58;101303.53;;;21.88;69.16
67457;BME280;54319;52.038;4.640;2023-06-26T00:48:25;101308.81;;;21.79;69.48
67457;BME280;54319;52.038;4.640;2023-06-26T00:50:51;101311.56;;;21.68;70.32
67457;BME280;54319;52.038;4.640;2023-06-26T00:53:18;101281.25;;;21.36;71.42
67457;BME280;54319;52.038;4.640;2023-06-26T00:55:46;101295.69;;;21.33;72.17
67457;BME280;54319;52.038;4.640;2023-06-26T00:58:12;101329.00;;;21.38;73.21
67457;BME280;54319;52.038;4.640;2023-06-26T01:00:39;101326.75;;;21.30;73.53
67457;BME280;54319;52.038;4.640;2023-06-26T01:03:07;101335.06;;;21.24;74.50
67457;BME280;54319;52.038;4.640;2023-06-26T01:05:33;101327.78;;;21.13;75.03
67457;BME280;54319;52.038;4.640;2023-06-26T01:08:00;101324.44;;;21.01;77.01
67457;BME280;54319;52.038;4.640;2023-06-26T01:10:28;101322.44;;;20.91;77.17
67457;BME280;54319;52.038;4.640;2023-06-26T01:12:55;101321.06;;;20.88;77.54
67457;BME280;54319;52.038;4.640;2023-06-26T01:15:23;101319.97;;;20.94;77.39
67457;BME280;54319;52.038;4.640;2023-06-26T01:17:50;101328.25;;;20.84;78.84
67457;BME280;54319;52.038;4.640;2023-06-26T01:20:19;101314.28;;;20.74;78.94
67457;BME280;54319;52.038;4.640;2023-06-26T01:22:55;101322.41;;;20.80;79.56
67457;BME280;54319;52.038;4.640;2023-06-26T01:25:29;101331.78;;;20.74;79.56
67457;BME280;54319;52.038;4.640;2023-06-26T01:28:06;101332.84;;;20.68;80.91
67457;BME280;54319;52.038;4.640;2023-06-26T01:30:35;101311.44;;;20.58;80.57
67457;BME280;54319;52.038;4.640;2023-06-26T01:33:03;101319.56;;;20.70;80.78
67457;BME280;54319;52.038;4.640;2023-06-26T01:35:30;101319.53;;;20.65;81.32
67457;BME280;54319;52.038;4.640;2023-06-26T01:38:11;101317.03;;;20.68;81.19
67457;BME280;54319;52.038;4.640;2023-06-26T01:40:38;101319.78;;;20.63;81.62
67457;BME280;54319;52.038;4.640;2023-06-26T01:43:13;101315.06;;;20.64;81.76
67457;BME280;54319;52.038;4.640;2023-06-26T01:45:42;101320.34;;;20.65;81.72
67457;BME280;54319;52.038;4.640;2023-06-26T01:48:12;101322.00;;;20.61;82.83
67457;BME280;54319;52.038;4.640;2023-06-26T01:50:40;101328.66;;;20.65;82.04
67457;BME280;54319;52.038;4.640;2023-06-26T01:53:10;101315.88;;;20.54;82.09
67457;BME280;54319;52.038;4.640;2023-06-26T01:55:43;101331.41;;;20.60;82.29
67457;BME280;54319;52.038;4.640;2023-06-26T01:58:13;101325.88;;;20.60;82.26
67457;BME280;54319;52.038;4.640;2023-06-26T02:00:42;101330.28;;;20.56;81.91
67457;BME280;54319;52.038;4.640;2023-06-26T02:03:09;101318.59;;;20.49;82.01
67457;BME280;54319;52.038;4.640;2023-06-26T02:05:35;101320.53;;;20.48;81.95
67457;BME280;54319;52.038;4.640;2023-06-26T02:08:02;101322.16;;;20.44;82.09
67457;BME280;54319;52.038;4.640;2023-06-26T02:10:29;101324.38;;;20.42;81.79
67457;BME280;54319;52.038;4.640;2023-06-26T02:12:56;101328.50;;;20.39;81.50
67457;BME280;54319;52.038;4.640;2023-06-26T02:15:24;101327.38;;;20.35;81.22
67457;BME280;54319;52.038;4.640;2023-06-26T02:17:51;101337.94;;;20.44;80.69
67457;BME280;54319;52.038;4.640;2023-06-26T02:20:17;101321.28;;;20.38;80.89
67457;BME280;54319;52.038;4.640;2023-06-26T02:22:44;101316.28;;;20.35;79.94
67457;BME280;54319;52.038;4.640;2023-06-26T02:25:11;101341.75;;;20.32;80.24
67457;BME280;54319;52.038;4.640;2023-06-26T02:27:38;101349.50;;;20.30;80.43
67457;BME280;54319;52.038;4.640;2023-06-26T02:30:05;101349.25;;;20.32;80.17
67457;BME280;54319;52.038;4.640;2023-06-26T02:32:33;101359.44;;;20.26;80.44
67457;BME280;54319;52.038;4.640;2023-06-26T02:35:00;101352.19;;;20.20;81.11
67457;BME280;54319;52.038;4.640;2023-06-26T02:37:27;101351.09;;;20.21;80.90
67457;BME280;54319;52.038;4.640;2023-06-26T02:39:53;101350.78;;;20.17;81.21
67457;BME280;54319;52.038;4.640;2023-06-26T02:42:20;101356.59;;;20.16;81.88
67457;BME280;54319;52.038;4.640;2023-06-26T02:44:47;101356.03;;;20.14;82.10
67457;BME280;54319;52.038;4.640;2023-06-26T02:47:13;101350.47;;;20.08;81.65
67457;BME280;54319;52.038;4.640;2023-06-26T02:49:41;101375.88;;;20.05;81.97
67457;BME280;54319;52.038;4.640;2023-06-26T02:52:08;101377.50;;;20.01;82.09
67457;BME280;54319;52.038;4.640;2023-06-26T02:54:35;101378.66;;;20.05;82.00
67457;BME280;54319;52.038;4.640;2023-06-26T02:57:02;101354.75;;;19.94;81.37
67457;BME280;54319;52.038;4.640;2023-06-26T02:59:28;101376.91;;;19.94;81.49
67457;BME280;54319;52.038;4.640;2023-06-26T03:01:55;101370.78;;;19.92;81.66
67457;BME280;54319;52.038;4.640;2023-06-26T03:04:21;101376.81;;;19.89;81.89
67457;BME280;54319;52.038;4.640;2023-06-26T03:06:49;101383.94;;;19.79;82.04
67457;BME280;54319;52.038;4.640;2023-06-26T03:09:16;101389.69;;;19.73;82.11
67457;BME280;54319;52.038;4.640;2023-06-26T03:11:43;101398.69;;;19.63;82.68
67457;BME280;54319;52.038;4.640;2023-06-26T03:14:09;101396.69;;;19.53;83.18
67457;BME280;54319;52.038;4.640;2023-06-26T03:16:37;101396.00;;;19.46;83.61
67457;BME280;54319;52.038;4.640;2023-06-26T03:19:03;101398.47;;;19.42;83.46
67457;BME280;54319;52.038;4.640;2023-06-26T03:21:30;101395.38;;;19.38;83.04
67457;BME280;54319;52.038;4.640;2023-06-26T03:23:58;101396.75;;;19.36;83.48
67457;BME280;54319;52.038;4.640;2023-06-26T03:26:25;101403.88;;;19.32;84.12
67457;BME280;54319;52.038;4.640;2023-06-26T03:28:53;101404.47;;;19.34;83.98
67457;BME280;54319;52.038;4.640;2023-06-26T03:31:20;101392.97;;;19.20;84.71
67457;BME280;54319;52.038;4.640;2023-06-26T03:33:47;101406.50;;;19.21;84.63
67457;BME280;54319;52.038;4.640;2023-06-26T03:36:14;101402.34;;;19.19;84.60
67457;BME280;54319;52.038;4.640;2023-06-26T03:38:41;101404.31;;;19.23;83.89
67457;BME280;54319;52.038;4.640;2023-06-26T03:41:09;101414.16;;;19.14;84.92
67457;BME280;54319;52.038;4.640;2023-06-26T03:43:36;101408.06;;;19.12;85.03
67457;BME280;54319;52.038;4.640;2023-06-26T03:46:03;101411.28;;;19.04;85.25
67457;BME280;54319;52.038;4.640;2023-06-26T03:48:29;101405.75;;;19.04;84.82
67457;BME280;54319;52.038;4.640;2023-06-26T03:50:56;101413.47;;;19.02;85.46
67457;BME280;54319;52.038;4.640;2023-06-26T03:53:22;101413.59;;;18.95;85.75
67457;BME280;54319;52.038;4.640;2023-06-26T03:55:49;101422.47;;;18.97;85.48
67457;BME280;54319;52.038;4.640;2023-06-26T03:58:17;101416.53;;;18.88;85.77
67457;BME280;54319;52.038;4.640;2023-06-26T04:00:44;101421.50;;;18.86;86.15
67457;BME280;54319;52.038;4.640;2023-06-26T04:03:12;101435.25;;;18.81;86.37
67457;BME280;54319;52.038;4.640;2023-06-26T04:05:39;101428.03;;;18.80;86.68
67457;BME280;54319;52.038;4.640;2023-06-26T04:08:05;101432.97;;;18.78;87.10
67457;BME280;54319;52.038;4.640;2023-06-26T04:10:32;101441.78;;;18.75;86.92
67457;BME280;54319;52.038;4.640;2023-06-26T04:12:59;101442.44;;;18.82;86.35
67457;BME280;54319;52.038;4.640;2023-06-26T04:15:27;101462.47;;;18.72;87.10
67457;BME280;54319;52.038;4.640;2023-06-26T04:17:54;101454.44;;;18.71;87.19
67457;BME280;54319;52.038;4.640;2023-06-26T04:20:20;101466.81;;;18.68;87.32
67457;BME280;54319;52.038;4.640;2023-06-26T04:22:47;101440.97;;;18.40;87.20
67457;BME280;54319;52.038;4.640;2023-06-26T04:25:14;101472.63;;;18.66;86.70
67457;BME280;54319;52.038;4.640;2023-06-26T04:27:40;101476.97;;;18.62;87.41
67457;BME280;54319;52.038;4.640;2023-06-26T04:30:08;101476.78;;;18.69;86.51
67457;BME280;54319;52.038;4.640;2023-06-26T04:32:37;101484.69;;;18.60;87.14
67457;BME280;54319;52.038;4.640;2023-06-26T04:35:03;101479.31;;;18.54;87.10
67457;BME280;54319;52.038;4.640;2023-06-26T04:37:30;101472.34;;;18.51;87.81
67457;BME280;54319;52.038;4.640;2023-06-26T04:39:57;101473.34;;;18.62;86.60
67457;BME280;54319;52.038;4.640;2023-06-26T04:42:23;101479.16;;;18.60;86.03
67457;BME280;54319;52.038;4.640;2023-06-26T04:44:50;101479.72;;;18.62;85.50
67457;BME280;54319;52.038;4.640;2023-06-26T04:47:17;101489.50;;;18.70;84.70
67457;BME280;54319;52.038;4.640;2023-06-26T04:49:45;101495.72;;;18.77;83.54
67457;BME280;54319;52.038;4.640;2023-06-26T04:52:11;101499.25;;;18.73;82.82
67457;BME280;54319;52.038;4.640;2023-06-26T04:54:39;101489.28;;;18.72;82.81
67457;BME280;54319;52.038;4.640;2023-06-26T04:57:05;101495.31;;;18.69;82.92
67457;BME280;54319;52.038;4.640;2023-06-26T04:59:34;101510.97;;;18.80;82.88
67457;BME280;54319;52.038;4.640;2023-06-26T05:02:00;101488.69;;;18.70;82.50
67457;BME280;54319;52.038;4.640;2023-06-26T05:04:27;101464.63;;;18.53;82.22
67457;BME280;54319;52.038;4.640;2023-06-26T05:06:55;101512.78;;;18.91;81.93
67457;BME280;54319;52.038;4.640;2023-06-26T05:09:22;101515.75;;;18.85;82.25
67457;BME280;54319;52.038;4.640;2023-06-26T05:11:48;101517.56;;;18.79;82.92
67457;BME280;54319;52.038;4.640;2023-06-26T05:14:15;101521.66;;;18.93;82.28
67457;BME280;54319;52.038;4.640;2023-06-26T05:16:42;101523.25;;;18.89;82.11
67457;BME280;54319;52.038;4.640;2023-06-26T05:19:08;101531.66;;;18.94;82.19
67457;BME280;54319;52.038;4.640;2023-06-26T05:21:35;101541.97;;;18.99;82.71
67457;BME280;54319;52.038;4.640;2023-06-26T05:24:04;101540.44;;;18.91;84.14
67457;BME280;54319;52.038;4.640;2023-06-26T05:26:32;101538.44;;;18.87;84.96
67457;BME280;54319;52.038;4.640;2023-06-26T05:28:59;101538.09;;;18.83;85.04
67457;BME280;54319;52.038;4.640;2023-06-26T05:31:26;101549.00;;;18.90;84.32
67457;BME280;54319;52.038;4.640;2023-06-26T05:33:54;101553.59;;;18.84;85.16
67457;BME280;54319;52.038;4.640;2023-06-26T05:36:22;101548.41;;;18.88;85.42
67457;BME280;54319;52.038;4.640;2023-06-26T05:38:50;101550.50;;;18.80;85.78
67457;BME280;54319;52.038;4.640;2023-06-26T05:41:19;101573.13;;;18.94;84.87
67457;BME280;54319;52.038;4.640;2023-06-26T05:43:45;101512.38;;;18.65;84.60
67457;BME280;54319;52.038;4.640;2023-06-26T05:46:12;101571.28;;;19.17;83.93
67457;BME280;54319;52.038;4.640;2023-06-26T05:48:39;101579.66;;;19.22;83.18
67457;BME280;54319;52.038;4.640;2023-06-26T05:51:07;101586.72;;;19.30;81.98
67457;BME280;54319;52.038;4.640;2023-06-26T05:53:35;101579.22;;;19.31;80.80
67457;BME280;54319;52.038;4.640;2023-06-26T05:56:01;101593.16;;;19.36;78.19
67457;BME280;54319;52.038;4.640;2023-06-26T05:58:31;101587.97;;;19.22;76.77
67457;BME280;54319;52.038;4.640;2023-06-26T06:00:59;101589.81;;;19.17;77.01
67457;BME280;54319;52.038;4.640;2023-06-26T06:03:25;101597.63;;;19.03;77.81
67457;BME280;54319;52.038;4.640;2023-06-26T06:05:52;101590.78;;;18.93;76.84
67457;BME280;54319;52.038;4.640;2023-06-26T06:08:19;101595.13;;;18.89;76.88
67457;BME280;54319;52.038;4.640;2023-06-26T06:10:46;101601.59;;;18.95;76.54
67457;BME280;54319;52.038;4.640;2023-06-26T06:13:12;101610.28;;;18.99;76.29
67457;BME280;54319;52.038;4.640;2023-06-26T06:15:40;101612.91;;;18.93;76.02
67457;BME280;54319;52.038;4.640;2023-06-26T06:18:07;101599.16;;;18.82;76.34
67457;BME280;54319;52.038;4.640;2023-06-26T06:20:34;101616.75;;;18.92;76.39
67457;BME280;54319;52.038;4.640;2023-06-26T06:23:01;101627.41;;;18.84;76.21
67457;BME280;54319;52.038;4.640;2023-06-26T06:25:28;101636.09;;;18.92;76.02
67457;BME280;54319;52.038;4.640;2023-06-26T06:27:54;101634.66;;;19.02;76.36
67457;BME280;54319;52.038;4.640;2023-06-26T06:30:21;101640.78;;;19.21;75.67
67457;BME280;54319;52.038;4.640;2023-06-26T06:32:49;101644.22;;;19.28;74.19
67457;BME280;54319;52.038;4.640;2023-06-26T06:35:18;101640.19;;;19.36;73.31
67457;BME280;54319;52.038;4.640;2023-06-26T06:37:45;101653.25;;;19.23;74.20
67457;BME280;54319;52.038;4.640;2023-06-26T06:40:12;101664.81;;;19.20;73.33
67457;BME280;54319;52.038;4.640;2023-06-26T06:42:38;101652.84;;;18.98;74.19
67457;BME280;54319;52.038;4.640;2023-06-26T06:45:06;101661.59;;;18.94;74.34
67457;BME280;54319;52.038;4.640;2023-06-26T06:47:34;101662.31;;;19.02;74.07
67457;BME280;54319;52.038;4.640;2023-06-26T06:50:02;101660.63;;;19.01;74.30
67457;BME280;54319;52.038;4.640;2023-06-26T06:52:35;101665.06;;;19.02;73.12
67457;BME280;54319;52.038;4.640;2023-06-26T06:55:02;101671.19;;;19.04;72.66
67457;BME280;54319;52.038;4.640;2023-06-26T06:57:32;101672.28;;;19.03;73.07
67457;BME280;54319;52.038;4.640;2023-06-26T07:00:01;101679.88;;;18.95;73.41
67457;BME280;54319;52.038;4.640;2023-06-26T07:02:28;101674.78;;;19.04;72.32
67457;BME280;54319;52.038;4.640;2023-06-26T07:04:55;101679.06;;;19.12;72.42
67457;BME280;54319;52.038;4.640;2023-06-26T07:07:23;101675.81;;;19.15;72.46
67457;BME280;54319;52.038;4.640;2023-06-26T07:09:49;101678.47;;;19.10;72.54
67457;BME280;54319;52.038;4.640;2023-06-26T07:12:16;101686.78;;;19.27;73.12
67457;BME280;54319;52.038;4.640;2023-06-26T07:14:43;101685.63;;;19.40;72.00
67457;BME280;54319;52.038;4.640;2023-06-26T07:17:09;101669.94;;;19.29;71.92
67457;BME280;54319;52.038;4.640;2023-06-26T07:19:36;101658.13;;;19.16;71.41
67457;BME280;54319;52.038;4.640;2023-06-26T07:22:03;101701.47;;;19.45;71.07
67457;BME280;54319;52.038;4.640;2023-06-26T07:24:31;101706.59;;;19.36;70.78
67457;BME280;54319;52.038;4.640;2023-06-26T07:26:59;101687.38;;;19.29;70.86
67457;BME280;54319;52.038;4.640;2023-06-26T07:29:26;101705.38;;;19.66;69.68
67457;BME280;54319;52.038;4.640;2023-06-26T07:31:52;101708.66;;;19.80;69.63
67457;BME280;54319;52.038;4.640;2023-06-26T07:34:19;101718.81;;;20.08;68.32
67457;BME280;54319;52.038;4.640;2023-06-26T07:36:46;101720.81;;;20.35;68.00
67457;BME280;54319;52.038;4.640;2023-06-26T07:39:12;101724.44;;;20.36;66.80
67457;BME280;54319;52.038;4.640;2023-06-26T07:41:40;101731.59;;;20.54;66.87
67457;BME280;54319;52.038;4.640;2023-06-26T07:44:07;101722.31;;;20.65;66.09
67457;BME280;54319;52.038;4.640;2023-06-26T07:46:34;101732.34;;;20.72;64.13
67457;BME280;54319;52.038;4.640;2023-06-26T07:49:01;101735.41;;;20.92;63.33
67457;BME280;54319;52.038;4.640;2023-06-26T07:51:27;101740.56;;;20.84;63.50
67457;BME280;54319;52.038;4.640;2023-06-26T07:53:54;101741.50;;;20.94;63.36
67457;BME280;54319;52.038;4.640;2023-06-26T07:56:20;101742.19;;;21.07;63.36
67457;BME280;54319;52.038;4.640;2023-06-26T07:58:48;101738.50;;;21.23;62.77
67457;BME280;54319;52.038;4.640;2023-06-26T08:01:15;101737.59;;;21.18;63.20
67457;BME280;54319;52.038;4.640;2023-06-26T08:03:42;101738.53;;;21.29;62.31
67457;BME280;54319;52.038;4.640;2023-06-26T08:06:09;101745.53;;;21.36;61.55
67457;BME280;54319;52.038;4.640;2023-06-26T08:08:36;101751.63;;;21.38;60.73
67457;BME280;54319;52.038;4.640;2023-06-26T08:11:02;101765.06;;;21.47;60.49
67457;BME280;54319;52.038;4.640;2023-06-26T08:13:29;101759.03;;;21.55;60.36
67457;BME280;54319;52.038;4.640;2023-06-26T08:15:57;101759.31;;;21.59;60.15
67457;BME280;54319;52.038;4.640;2023-06-26T08:18:24;101750.66;;;21.82;59.12
67457;BME280;54319;52.038;4.640;2023-06-26T08:20:50;101775.41;;;22.32;57.24
67457;BME280;54319;52.038;4.640;2023-06-26T08:23:17;101762.13;;;22.39;56.28
67457;BME280;54319;52.038;4.640;2023-06-26T08:25:44;101775.06;;;22.72;54.87
67457;BME280;54319;52.038;4.640;2023-06-26T08:28:12;101775.84;;;22.08;55.93
67457;BME280;54319;52.038;4.640;2023-06-26T08:30:39;101772.59;;;22.22;56.46
67457;BME280;54319;52.038;4.640;2023-06-26T08:33:08;101775.59;;;22.63;55.53
67457;BME280;54319;52.038;4.640;2023-06-26T08:35:37;101776.25;;;22.91;53.75
67457;BME280;54319;52.038;4.640;2023-06-26T08:38:04;101775.72;;;22.99;54.46
67457;BME280;54319;52.038;4.640;2023-06-26T08:40:31;101783.41;;;22.66;54.86
67457;BME280;54319;52.038;4.640;2023-06-26T08:42:58;101773.09;;;22.62;54.90
67457;BME280;54319;52.038;4.640;2023-06-26T08:45:25;101785.59;;;22.59;55.29
67457;BME280;54319;52.038;4.640;2023-06-26T08:47:54;101794.28;;;22.30;53.98
67457;BME280;54319;52.038;4.640;2023-06-26T08:50:23;101796.97;;;22.09;54.22
67457;BME280;54319;52.038;4.640;2023-06-26T08:52:53;101787.19;;;22.02;54.22
67457;BME280;54319;52.038;4.640;2023-06-26T08:55:23;101785.41;;;22.28;55.40
67457;BME280;54319;52.038;4.640;2023-06-26T08:57:51;101790.59;;;22.62;53.26
67457;BME280;54319;52.038;4.640;2023-06-26T09:00:19;101782.97;;;22.42;52.93
67457;BME280;54319;52.038;4.640;2023-06-26T09:02:46;101799.00;;;22.24;52.84
67457;BME280;54319;52.038;4.640;2023-06-26T09:05:12;101800.94;;;22.24;52.83
67457;BME280;54319;52.038;4.640;2023-06-26T09:07:41;101788.56;;;21.99;53.03
67457;BME280;54319;52.038;4.640;2023-06-26T09:10:08;101813.44;;;22.21;52.43
67457;BME280;54319;52.038;4.640;2023-06-26T09:12:36;101807.56;;;22.18;52.41
67457;BME280;54319;52.038;4.640;2023-06-26T09:15:04;101812.31;;;22.17;52.41
67457;BME280;54319;52.038;4.640;2023-06-26T09:17:34;101812.47;;;22.00;52.37
67457;BME280;54319;52.038;4.640;2023-06-26T09:20:05;101814.03;;;21.91;53.57
67457;BME280;54319;52.038;4.640;2023-06-26T09:22:34;101816.09;;;21.68;53.01
67457;BME280;54319;52.038;4.640;2023-06-26T09:25:06;101817.31;;;21.82;53.49
67457;BME280;54319;52.038;4.640;2023-06-26T09:27:33;101826.34;;;22.00;52.86
67457;BME280;54319;52.038;4.640;2023-06-26T09:30:01;101831.63;;;22.02;52.51
67457;BME280;54319;52.038;4.640;2023-06-26T09:32:28;101844.84;;;22.22;51.62
67457;BME280;54319;52.038;4.640;2023-06-26T09:34:55;101851.50;;;22.21;53.82
67457;BME280;54319;52.038;4.640;2023-06-26T09:37:23;101847.75;;;22.43;51.25
67457;BME280;54319;52.038;4.640;2023-06-26T09:39:50;101844.97;;;22.37;52.54
67457;BME280;54319;52.038;4.640;2023-06-26T09:42:19;101840.75;;;22.35;52.09
67457;BME280;54319;52.038;4.640;2023-06-26T09:44:46;101853.09;;;22.11;51.60
67457;BME280;54319;52.038;4.640;2023-06-26T09:47:16;101856.91;;;22.00;54.99
67457;BME280;54319;52.038;4.640;2023-06-26T09:49:43;101860.06;;;22.14;53.21
67457;BME280;54319;52.038;4.640;2023-06-26T09:52:10;101866.50;;;22.20;53.38
67457;BME280;54319;52.038;4.640;2023-06-26T09:54:40;101868.44;;;21.87;53.32
67457;BME280;54319;52.038;4.640;2023-06-26T09:57:09;101869.16;;;22.04;55.42
67457;BME280;54319;52.038;4.640;2023-06-26T09:59:38;101872.06;;;22.20;54.62
67457;BME280;54319;52.038;4.640;2023-06-26T10:02:06;101871.31;;;22.30;54.09
67457;BME280;54319;52.038;4.640;2023-06-26T10:04:32;101883.50;;;22.23;52.71
67457;BME280;54319;52.038;4.640;2023-06-26T10:07:01;101875.34;;;22.11;53.72
67457;BME280;54319;52.038;4.640;2023-06-26T10:09:31;101878.56;;;22.36;53.86
67457;BME280;54319;52.038;4.640;2023-06-26T10:12:01;101887.78;;;22.41;54.02
67457;BME280;54319;52.038;4.640;2023-06-26T10:14:35;101883.88;;;22.37;53.88
67457;BME280;54319;52.038;4.640;2023-06-26T10:17:06;101899.69;;;22.37;53.31
67457;BME280;54319;52.038;4.640;2023-06-26T10:19:35;101878.22;;;22.27;52.59
67457;BME280;54319;52.038;4.640;2023-06-26T10:22:04;101897.66;;;22.27;53.43
67457;BME280;54319;52.038;4.640;2023-06-26T10:24:33;101886.09;;;22.35;52.19
67457;BME280;54319;52.038;4.640;2023-06-26T10:27:04;101892.31;;;22.48;51.93
67457;BME280;54319;52.038;4.640;2023-06-26T10:29:34;101891.66;;;22.35;52.47
67457;BME280;54319;52.038;4.640;2023-06-26T10:32:04;101900.13;;;22.56;51.49
67457;BME280;54319;52.038;4.640;2023-06-26T10:34:32;101894.19;;;22.80;51.79
67457;BME280;54319;52.038;4.640;2023-06-26T10:37:00;101893.00;;;22.70;51.12
67457;BME280;54319;52.038;4.640;2023-06-26T10:39:27;101907.13;;;22.59;51.02
67457;BME280;54319;52.038;4.640;2023-06-26T10:41:55;101915.22;;;22.70;49.76
67457;BME280;54319;52.038;4.640;2023-06-26T10:44:40;101907.38;;;22.57;49.62
67457;BME280;54319;52.038;4.640;2023-06-26T10:47:10;101917.34;;;22.48;49.33
67457;BME280;54319;52.038;4.640;2023-06-26T10:49:37;101917.84;;;22.45;48.58
67457;BME280;54319;52.038;4.640;2023-06-26T10:52:05;101922.38;;;22.56;50.10
67457;BME280;54319;52.038;4.640;2023-06-26T10:54:32;101930.69;;;22.94;48.21
67457;BME280;54319;52.038;4.640;2023-06-26T10:56:58;101918.75;;;23.04;49.18
67457;BME280;54319;52.038;4.640;2023-06-26T10:59:26;101925.22;;;23.20;47.92
67457;BME280;54319;52.038;4.640;2023-06-26T11:01:57;101930.16;;;22.97;46.21
67457;BME280;54319;52.038;4.640;2023-06-26T11:04:39;101913.66;;;22.85;48.14
67457;BME280;54319;52.038;4.640;2023-06-26T11:07:18;101919.03;;;23.02;47.82
67457;BME280;54319;52.038;4.640;2023-06-26T11:09:59;101943.53;;;23.05;47.66
67457;BME280;54319;52.038;4.640;2023-06-26T11:12:40;101938.53;;;23.02;46.78
67457;BME280;54319;52.038;4.640;2023-06-26T11:15:08;101932.84;;;22.87;47.45
67457;BME280;54319;52.038;4.640;2023-06-26T11:17:36;101936.00;;;23.01;46.74
67457;BME280;54319;52.038;4.640;2023-06-26T11:20:05;101942.41;;;22.96;47.40
67457;BME280;54319;52.038;4.640;2023-06-26T11:22:34;101954.44;;;23.12;47.74
67457;BME280;54319;52.038;4.640;2023-06-26T11:25:02;101958.44;;;23.26;46.40
67457;BME280;54319;52.038;4.640;2023-06-26T11:27:35;101935.06;;;22.84;46.18
67457;BME280;54319;52.038;4.640;2023-06-26T11:30:04;101967.88;;;23.25;46.63
67457;BME280;54319;52.038;4.640;2023-06-26T11:32:32;101968.47;;;22.90;46.42
67457;BME280;54319;52.038;4.640;2023-06-26T11:34:59;101970.34;;;22.74;47.19
67457;BME280;54319;52.038;4.640;2023-06-26T11:37:27;101974.09;;;22.57;47.08
67457;BME280;54319;52.038;4.640;2023-06-26T11:39:54;101974.50;;;22.71;45.34
67457;BME280;54319;52.038;4.640;2023-06-26T11:42:20;101986.75;;;22.43;47.79
67457;BME280;54319;52.038;4.640;2023-06-26T11:44:47;101981.34;;;22.58;47.32
67457;BME280;54319;52.038;4.640;2023-06-26T11:47:15;101984.28;;;22.79;48.41
67457;BME280;54319;52.038;4.640;2023-06-26T11:49:42;101985.72;;;22.87;46.35
67457;BME280;54319;52.038;4.640;2023-06-26T11:52:09;101980.50;;;22.95;46.33
67457;BME280;54319;52.038;4.640;2023-06-26T11:54:37;102001.06;;;22.94;45.38
67457;BME280;54319;52.038;4.640;2023-06-26T11:57:04;102006.16;;;23.08;45.95
67457;BME280;54319;52.038;4.640;2023-06-26T11:59:34;102001.44;;;23.51;45.88
67457;BME280;54319;52.038;4.640;2023-06-26T12:02:04;102004.56;;;23.70;45.02
67457;BME280;54319;52.038;4.640;2023-06-26T12:04:32;101992.56;;;23.70;45.15
67457;BME280;54319;52.038;4.640;2023-06-26T12:07:00;101990.44;;;24.13;45.07
67457;BME280;54319;52.038;4.640;2023-06-26T12:09:29;102000.94;;;23.80;42.76
67457;BME280;54319;52.038;4.640;2023-06-26T12:12:01;101999.69;;;23.45;44.57
67457;BME280;54319;52.038;4.640;2023-06-26T12:14:28;102003.56;;;23.34;45.88
67457;BME280;54319;52.038;4.640;2023-06-26T12:16:55;102014.88;;;23.22;45.95
67457;BME280;54319;52.038;4.640;2023-06-26T12:19:24;102007.50;;;23.43;45.58
67457;BME280;54319;52.038;4.640;2023-06-26T12:21:51;102031.75;;;23.53;44.48
67457;BME280;54319;52.038;4.640;2023-06-26T12:24:19;102027.44;;;23.88;44.70
67457;BME280;54319;52.038;4.640;2023-06-26T12:26:49;102027.13;;;23.84;44.08
67457;BME280;54319;52.038;4.640;2023-06-26T12:29:18;102024.88;;;23.71;45.05
67457;BME280;54319;52.038;4.640;2023-06-26T12:31:49;102034.88;;;23.62;44.06
67457;BME280;54319;52.038;4.640;2023-06-26T12:34:18;102042.34;;;23.51;45.33
67457;BME280;54319;52.038;4.640;2023-06-26T12:36:46;102036.56;;;23.63;44.39
67457;BME280;54319;52.038;4.640;2023-06-26T12:39:16;102042.41;;;23.66;44.70
67457;BME280;54319;52.038;4.640;2023-06-26T12:41:51;102034.91;;;23.24;46.45
67457;BME280;54319;52.038;4.640;2023-06-26T12:44:21;102028.78;;;23.22;47.02
67457;BME280;54319;52.038;4.640;2023-06-26T12:46:49;102035.84;;;23.30;45.70
67457;BME280;54319;52.038;4.640;2023-06-26T12:49:16;102039.19;;;23.32;45.93
67457;BME280;54319;52.038;4.640;2023-06-26T12:51:44;102028.75;;;23.17;46.87
67457;BME280;54319;52.038;4.640;2023-06-26T12:54:12;102043.22;;;23.56;46.05